Taylorsville, Indiana
Current Conditions -  °F | °C
As of 9:55 PM on Friday 28 Nov 2014 (Local Time) from KBAK Reporting Station
Clear Clear  
Wind Chill: 26°   Ceiling: Unl
Heat Index: 32°   Visibility: 10mi
Dew Point: 23°   Wind: 6mph
Humidity: 69%   Direction: 170°S
Pressure: 30.07"   Gusts: NA
Location:  39.3°N, 85.95°W
Report Text: KBAK 290255Z 17005KT 10SM SKC 00/M05 A3007
Loading
Personal Weather Stations






























Interactive Weather Map New forecast layout! Learn more

10-Day Weather Forecast

Advertisements
Track Severe Weather on mobile